createdAt,value
2018-02-16T00:00:27.869Z,92411.89
2018-02-16T00:01:16.663Z,92414.94
2018-02-16T00:02:06.103Z,92408.05
2018-02-16T00:02:55.194Z,92415.22
2018-02-16T00:03:44.275Z,92414.20
2018-02-16T00:04:33.345Z,92420.00
2018-02-16T00:05:22.960Z,92410.41
2018-02-16T00:06:12.019Z,92417.56
2018-02-16T00:07:01.308Z,92418.94
2018-02-16T00:07:50.471Z,92417.22
2018-02-16T00:08:39.535Z,92417.22
2018-02-16T00:09:28.601Z,92419.60
2018-02-16T00:10:17.666Z,92419.22
2018-02-16T00:11:06.759Z,92416.44
2018-02-16T00:11:55.858Z,92416.44
2018-02-16T00:12:44.930Z,92419.84
2018-02-16T00:13:34.082Z,92421.53
2018-02-16T00:14:23.160Z,92423.22
2018-02-16T00:15:12.262Z,92422.52
2018-02-16T00:16:01.349Z,92420.09
2018-02-16T00:16:50.412Z,92422.13
2018-02-16T00:17:39.498Z,92417.31
2018-02-16T00:18:28.576Z,92422.44
2018-02-16T00:19:18.273Z,92425.50
2018-02-16T00:20:07.451Z,92423.42
2018-02-16T00:20:56.551Z,92423.07
2018-02-16T00:21:45.656Z,92419.23
2018-02-16T00:22:34.725Z,92427.50
2018-02-16T00:23:23.850Z,92420.61
2018-02-16T00:24:12.923Z,92424.69
2018-02-16T00:25:02.146Z,92428.44
2018-02-16T00:25:51.243Z,92424.30
2018-02-16T00:26:40.532Z,92422.89
2018-02-16T00:27:29.621Z,92423.94
2018-02-16T00:28:18.851Z,92426.30
2018-02-16T00:29:08.231Z,92427.63
2018-02-16T00:29:57.302Z,92420.70
2018-02-16T00:30:46.450Z,92423.80
2018-02-16T00:31:35.535Z,92415.93
2018-02-16T00:32:24.622Z,92418.63
2018-02-16T00:33:13.691Z,92416.91
2018-02-16T00:34:02.766Z,92421.33
2018-02-16T00:34:51.840Z,92415.50
2018-02-16T00:35:40.920Z,92426.11
2018-02-16T00:36:30.071Z,92422.66
2018-02-16T00:37:19.152Z,92424.35
2018-02-16T00:38:08.234Z,92417.16
2018-02-16T00:38:57.313Z,92425.02
2018-02-16T00:39:46.393Z,92420.88
2018-02-16T00:40:35.462Z,92424.63
2018-02-16T00:41:24.541Z,92424.27
2018-02-16T00:42:13.994Z,92432.14
2018-02-16T00:43:03.122Z,92422.91
2018-02-16T00:43:52.212Z,92427.30
2018-02-16T00:44:41.309Z,92425.22
2018-02-16T00:45:30.397Z,92421.77
2018-02-16T00:46:19.476Z,92422.09
2018-02-16T00:47:08.559Z,92422.76
2018-02-16T00:47:57.695Z,92424.44
2018-02-16T00:48:46.776Z,92430.94
2018-02-16T00:49:35.848Z,92433.02
2018-02-16T00:50:24.924Z,92424.05
2018-02-16T00:51:14.363Z,92433.64
2018-02-16T00:52:03.431Z,92431.22
2018-02-16T00:52:52.511Z,92430.20
2018-02-16T00:53:41.611Z,92432.90
2018-02-16T00:54:30.676Z,92430.16
2018-02-16T00:55:19.744Z,92430.44
2018-02-16T00:56:08.822Z,92430.09
2018-02-16T00:56:57.886Z,92425.63
2018-02-16T00:57:46.943Z,92425.59
2018-02-16T00:58:36.000Z,92425.90
2018-02-16T00:59:25.287Z,92426.95
2018-02-16T01:00:14.544Z,92428.28
2018-02-16T01:01:03.621Z,92425.52
2018-02-16T01:01:52.705Z,92426.84
2018-02-16T01:02:41.772Z,92428.88
2018-02-16T01:03:30.882Z,92428.53
2018-02-16T01:04:19.955Z,92429.86
2018-02-16T01:05:09.369Z,92423.68
2018-02-16T01:05:58.450Z,92427.12
2018-02-16T01:06:47.521Z,92426.41
2018-02-16T01:07:36.584Z,92426.73
2018-02-16T01:08:25.636Z,92423.64
2018-02-16T01:09:14.686Z,92426.69
2018-02-16T01:10:03.751Z,92428.34
2018-02-16T01:10:52.881Z,92430.02
2018-02-16T01:11:41.940Z,92426.62
2018-02-16T01:12:30.988Z,92424.55
2018-02-16T01:13:20.060Z,92427.95
2018-02-16T01:14:09.139Z,92428.30
2018-02-16T01:14:58.231Z,92432.37
2018-02-16T01:15:47.432Z,92431.00
2018-02-16T01:16:36.491Z,92432.02
2018-02-16T01:17:25.575Z,92431.31
2018-02-16T01:18:14.642Z,92428.22
2018-02-16T01:19:03.716Z,92433.66
2018-02-16T01:19:52.789Z,92434.68
2018-02-16T01:20:41.881Z,92430.18
2018-02-16T01:21:31.202Z,92432.88
2018-02-16T01:22:20.293Z,92430.45
2018-02-16T01:23:09.400Z,92431.48
2018-02-16T01:23:58.520Z,92431.48
2018-02-16T01:24:47.607Z,92431.13
2018-02-16T01:25:36.716Z,92435.58
2018-02-16T01:26:25.810Z,92428.38
2018-02-16T01:27:14.874Z,92430.77
2018-02-16T01:28:03.934Z,92431.44
2018-02-16T01:28:52.991Z,92430.73
2018-02-16T01:29:42.082Z,92430.06
2018-02-16T01:30:31.158Z,92429.33
2018-02-16T01:31:20.305Z,92426.23
2018-02-16T01:32:09.377Z,92428.27
2018-02-16T01:32:58.449Z,92427.22
2018-02-16T01:33:47.519Z,92419.31
2018-02-16T01:34:36.583Z,92426.47
2018-02-16T01:35:25.636Z,92425.10
2018-02-16T01:36:14.682Z,92427.84
2018-02-16T01:37:03.732Z,92429.91
2018-02-16T01:37:53.030Z,92431.59
2018-02-16T01:38:42.092Z,92432.25
2018-02-16T01:39:31.140Z,92435.30
2018-02-16T01:40:20.246Z,92432.21
2018-02-16T01:41:09.311Z,92433.58
2018-02-16T01:41:58.425Z,92436.59
2018-02-16T01:42:47.682Z,92437.96
2018-02-16T01:43:36.942Z,92434.52
2018-02-16T01:44:26.016Z,92433.81
2018-02-16T01:45:15.406Z,92434.80
2018-02-16T01:46:04.494Z,92432.41
2018-02-16T01:46:53.572Z,92436.16
2018-02-16T01:47:42.652Z,92433.07
2018-02-16T01:48:31.730Z,92435.50
2018-02-16T01:49:20.969Z,92433.07
2018-02-16T01:50:10.045Z,92430.65
2018-02-16T01:50:59.328Z,92434.41
2018-02-16T01:51:48.382Z,92433.70
2018-02-16T01:52:37.457Z,92431.63
2018-02-16T01:53:26.529Z,92432.61
2018-02-16T01:54:15.619Z,92429.87
2018-02-16T01:55:04.722Z,92433.27
2018-02-16T01:55:54.264Z,92432.92
2018-02-16T01:56:43.327Z,92427.41
2018-02-16T01:57:32.411Z,92435.93
2018-02-16T01:58:21.467Z,92432.84
2018-02-16T01:59:10.582Z,92434.17
2018-02-16T01:59:59.859Z,92435.50
2018-02-16T02:00:50.033Z,92432.77
2018-02-16T02:01:39.405Z,92436.83
2018-02-16T02:02:28.497Z,92433.32
2018-02-16T02:03:17.575Z,92435.39
2018-02-16T02:04:06.668Z,92431.95
2018-02-16T02:04:55.740Z,92436.41
2018-02-16T02:05:44.818Z,92432.62
2018-02-16T02:06:33.894Z,92431.56
2018-02-16T02:07:23.021Z,92430.86
2018-02-16T02:08:12.081Z,92430.50
2018-02-16T02:09:01.153Z,92431.87
2018-02-16T02:09:50.243Z,92431.17
2018-02-16T02:10:39.395Z,92433.20
2018-02-16T02:11:28.483Z,92433.87
2018-02-16T02:12:17.568Z,92433.52
2018-02-16T02:13:06.659Z,92437.97
2018-02-16T02:13:55.745Z,92438.99
2018-02-16T02:14:45.013Z,92432.11
2018-02-16T02:15:34.106Z,92437.58
2018-02-16T02:16:23.426Z,92435.52
2018-02-16T02:17:12.684Z,92436.84
2018-02-16T02:18:01.767Z,92434.45
2018-02-16T02:18:50.825Z,92436.48
2018-02-16T02:19:39.906Z,92435.08
2018-02-16T02:20:28.989Z,92436.45
2018-02-16T02:21:18.056Z,92435.39
2018-02-16T02:22:07.132Z,92439.14
2018-02-16T02:22:56.276Z,92441.88
2018-02-16T02:23:45.332Z,92442.90
2018-02-16T02:24:34.420Z,92444.93
2018-02-16T02:25:23.491Z,92442.16
2018-02-16T02:26:12.548Z,92442.47
2018-02-16T02:27:01.621Z,92444.50
2018-02-16T02:27:50.694Z,92444.81
2018-02-16T02:28:39.806Z,92443.44
2018-02-16T02:29:28.892Z,92449.54
2018-02-16T02:30:17.953Z,92449.54
2018-02-16T02:31:07.017Z,92447.11
2018-02-16T02:31:56.099Z,92444.34
2018-02-16T02:32:45.208Z,92445.75
2018-02-16T02:33:34.264Z,92445.05
2018-02-16T02:34:23.676Z,92441.60
2018-02-16T02:35:12.754Z,92448.80
2018-02-16T02:36:01.817Z,92442.97
2018-02-16T02:36:50.912Z,92446.38
2018-02-16T02:37:39.977Z,92442.93
2018-02-16T02:38:29.116Z,92452.11
2018-02-16T02:39:18.227Z,92444.92
2018-02-16T02:40:07.326Z,92444.92
2018-02-16T02:40:56.598Z,92448.33
2018-02-16T02:41:45.686Z,92446.91
2018-02-16T02:42:34.745Z,92448.63
2018-02-16T02:43:23.812Z,92446.17
2018-02-16T02:44:12.928Z,92448.55
2018-02-16T02:45:02.018Z,92453.02
2018-02-16T02:45:51.079Z,92451.30
2018-02-16T02:46:40.201Z,92446.84
2018-02-16T02:47:29.272Z,92455.05
2018-02-16T02:48:18.356Z,92453.67
2018-02-16T02:49:07.450Z,92449.88
2018-02-16T02:49:56.512Z,92450.23
2018-02-16T02:50:50.736Z,92454.65
2018-02-16T02:51:39.834Z,92447.73
2018-02-16T02:52:28.899Z,92450.11
2018-02-16T02:53:17.973Z,92450.78
2018-02-16T02:54:07.052Z,92454.53
2018-02-16T02:54:56.132Z,92448.70
2018-02-16T02:55:45.197Z,92448.39
2018-02-16T02:56:34.286Z,92451.44
2018-02-16T02:57:23.649Z,92455.16
2018-02-16T02:58:12.705Z,92454.76
2018-02-16T02:59:01.780Z,92454.76
2018-02-16T02:59:50.855Z,92448.63
2018-02-16T03:00:39.921Z,92458.16
2018-02-16T03:01:31.957Z,92456.79
2018-02-16T03:02:21.018Z,92460.86
2018-02-16T03:03:10.474Z,92457.41
2018-02-16T03:03:59.542Z,92457.77
2018-02-16T03:04:48.621Z,92454.72
2018-02-16T03:05:37.690Z,92459.84
2018-02-16T03:06:32.674Z,92460.19
2018-02-16T03:07:21.741Z,92457.10
2018-02-16T03:08:10.815Z,92459.53
2018-02-16T03:08:59.939Z,92458.86
2018-02-16T03:09:49.026Z,92458.16
2018-02-16T03:10:38.178Z,92457.84
2018-02-16T03:11:27.241Z,92459.26
2018-02-16T03:12:16.329Z,92457.53
2018-02-16T03:13:05.385Z,92459.30
2018-02-16T03:13:54.721Z,92460.31
2018-02-16T03:14:43.806Z,92461.02
2018-02-16T03:15:32.877Z,92459.65
2018-02-16T03:16:22.117Z,92465.16
2018-02-16T03:17:11.190Z,92472.00
2018-02-16T03:18:00.253Z,92464.14
2018-02-16T03:18:49.643Z,92470.02
2018-02-16T03:19:38.749Z,92470.72
2018-02-16T03:20:27.815Z,92468.02
2018-02-16T03:21:17.033Z,92469.08
2018-02-16T03:22:06.102Z,92468.06
2018-02-16T03:22:55.177Z,92469.78
2018-02-16T03:23:44.254Z,92466.69
2018-02-16T03:24:33.386Z,92468.80
2018-02-16T03:25:22.476Z,92469.47
2018-02-16T03:26:11.551Z,92472.95
2018-02-16T03:27:00.654Z,92472.28
2018-02-16T03:27:49.732Z,92470.61
2018-02-16T03:28:38.825Z,92474.01
2018-02-16T03:29:27.892Z,92477.80
2018-02-16T03:30:17.467Z,92474.75
2018-02-16T03:31:06.548Z,92471.34
2018-02-16T03:31:55.621Z,92472.41
2018-02-16T03:32:44.695Z,92477.87
2018-02-16T03:33:33.776Z,92475.19
2018-02-16T03:34:22.872Z,92474.17
2018-02-16T03:35:12.095Z,92478.66
2018-02-16T03:36:01.182Z,92479.02
2018-02-16T03:36:50.252Z,92483.47
2018-02-16T03:37:39.340Z,92481.80
2018-02-16T03:38:28.428Z,92490.00
2018-02-16T03:39:17.498Z,92487.66
2018-02-16T03:40:06.570Z,92486.64
2018-02-16T03:40:55.692Z,92490.79
2018-02-16T03:41:44.751Z,92494.54
2018-02-16T03:42:33.822Z,92492.55
2018-02-16T03:43:22.884Z,92490.88
2018-02-16T03:44:12.020Z,92489.19
2018-02-16T03:45:01.138Z,92488.52
2018-02-16T03:45:50.215Z,92486.49
2018-02-16T03:46:39.288Z,92490.99
2018-02-16T03:47:28.416Z,92492.71
2018-02-16T03:48:17.528Z,92486.92
2018-02-16T03:49:06.596Z,92490.02
2018-02-16T03:49:55.921Z,92489.35
2018-02-16T03:50:45.051Z,92491.08
2018-02-16T03:51:34.126Z,92491.08
2018-02-16T03:52:23.184Z,92483.92
2018-02-16T03:53:12.248Z,92486.34
2018-02-16T03:54:01.365Z,92487.75
2018-02-16T03:54:50.426Z,92484.66
2018-02-16T03:55:39.533Z,92495.33
2018-02-16T03:56:28.844Z,92491.92
2018-02-16T03:57:17.903Z,92502.56
2018-02-16T03:58:07.091Z,92500.53
2018-02-16T03:58:56.160Z,92497.52
2018-02-16T03:59:45.237Z,92501.66
2018-02-16T04:00:34.302Z,92496.89
2018-02-16T04:01:23.390Z,92498.66
2018-02-16T04:02:12.502Z,92504.48
2018-02-16T04:03:01.568Z,92504.52
2018-02-16T04:03:50.629Z,92502.80
2018-02-16T04:04:39.697Z,92496.34
2018-02-16T04:05:28.763Z,92499.13
2018-02-16T04:06:17.846Z,92500.14
2018-02-16T04:07:06.920Z,92494.00
2018-02-16T04:07:56.419Z,92501.59
2018-02-16T04:08:45.534Z,92499.16
2018-02-16T04:09:34.601Z,92500.58
2018-02-16T04:10:23.670Z,92501.98
2018-02-16T04:11:12.733Z,92498.54
2018-02-16T04:12:01.805Z,92494.78
2018-02-16T04:12:50.882Z,92500.30
2018-02-16T04:13:40.138Z,92497.91
2018-02-16T04:14:29.232Z,92498.27
2018-02-16T04:15:18.414Z,92504.80
2018-02-16T04:16:07.474Z,92497.64
2018-02-16T04:16:56.552Z,92501.08
2018-02-16T04:17:45.616Z,92503.84
2018-02-16T04:18:34.672Z,92502.81
2018-02-16T04:19:23.776Z,92504.23
2018-02-16T04:20:12.860Z,92503.21
2018-02-16T04:21:01.926Z,92505.28
2018-02-16T04:21:51.019Z,92499.81
2018-02-16T04:22:40.078Z,92500.16
2018-02-16T04:23:29.134Z,92502.63
2018-02-16T04:24:18.207Z,92500.23
2018-02-16T04:25:07.332Z,92494.80
2018-02-16T04:25:59.546Z,92500.63
2018-02-16T04:26:48.616Z,92502.35
2018-02-16T04:27:37.709Z,92503.05
2018-02-16T04:28:26.774Z,92501.37
2018-02-16T04:29:15.837Z,92502.08
2018-02-16T04:30:04.925Z,92512.72
2018-02-16T04:30:54.200Z,92511.66
2018-02-16T04:31:43.274Z,92512.72
2018-02-16T04:32:32.348Z,92519.29
2018-02-16T04:33:21.415Z,92517.96
2018-02-16T04:34:10.482Z,92512.17
2018-02-16T04:34:59.557Z,92520.08
2018-02-16T04:35:48.652Z,92516.32
2018-02-16T04:36:37.956Z,92523.52
2018-02-16T04:37:27.012Z,92519.80
2018-02-16T04:38:16.153Z,92525.28
2018-02-16T04:39:05.246Z,92523.24
2018-02-16T04:39:54.321Z,92526.02
2018-02-16T04:40:43.426Z,92527.74
2018-02-16T04:41:32.500Z,92527.08
2018-02-16T04:42:21.594Z,92530.52
2018-02-16T04:43:10.659Z,92528.48
2018-02-16T04:43:59.749Z,92534.31
2018-02-16T04:44:48.842Z,92532.28
2018-02-16T04:45:37.978Z,92535.38
2018-02-16T04:46:27.115Z,92535.72
2018-02-16T04:47:16.206Z,92535.45
2018-02-16T04:48:05.263Z,92535.77
2018-02-16T04:48:54.322Z,92543.98
2018-02-16T04:49:43.388Z,92532.71
2018-02-16T04:50:32.507Z,92536.16
2018-02-16T04:51:21.586Z,92538.94
2018-02-16T04:52:10.670Z,92544.06
2018-02-16T04:52:59.758Z,92535.88
2018-02-16T04:53:48.826Z,92542.77
2018-02-16T04:54:37.894Z,92539.36
2018-02-16T04:55:26.962Z,92537.69
2018-02-16T04:56:16.337Z,92538.73
2018-02-16T04:57:05.423Z,92536.66
2018-02-16T04:57:54.493Z,92537.69
2018-02-16T04:58:43.662Z,92535.30
2018-02-16T04:59:32.724Z,92539.72
2018-02-16T05:00:21.814Z,92532.91
2018-02-16T05:01:10.889Z,92537.41
2018-02-16T05:01:59.960Z,92540.85
2018-02-16T05:02:52.212Z,92535.38
2018-02-16T05:03:41.327Z,92542.22
2018-02-16T05:04:30.404Z,92541.24
2018-02-16T05:05:19.485Z,92538.86
2018-02-16T05:06:08.546Z,92533.06
2018-02-16T05:06:57.660Z,92536.86
2018-02-16T05:07:46.724Z,92538.89
2018-02-16T05:08:35.811Z,92534.47
2018-02-16T05:09:25.092Z,92537.56
2018-02-16T05:10:14.475Z,92541.71
2018-02-16T05:11:03.524Z,92542.38
2018-02-16T05:11:52.585Z,92546.17
2018-02-16T05:12:41.642Z,92547.23
2018-02-16T05:13:30.727Z,92541.09
2018-02-16T05:14:19.792Z,92546.21
2018-02-16T05:15:08.851Z,92541.80
2018-02-16T05:15:58.184Z,92543.47
2018-02-16T05:16:47.259Z,92550.01
2018-02-16T05:17:36.319Z,92545.90
2018-02-16T05:18:25.394Z,92541.13
2018-02-16T05:19:14.528Z,92545.90
2018-02-16T05:20:03.612Z,92542.84
2018-02-16T05:20:52.671Z,92540.46
2018-02-16T05:21:41.772Z,92542.22
2018-02-16T05:22:30.871Z,92548.75
2018-02-16T05:23:19.939Z,92543.98
2018-02-16T05:24:09.002Z,92548.80
2018-02-16T05:24:58.073Z,92550.48
2018-02-16T05:25:47.134Z,92551.18
2018-02-16T05:26:36.236Z,92555.33
2018-02-16T05:27:25.447Z,92555.72
2018-02-16T05:28:14.510Z,92560.22
2018-02-16T05:29:03.589Z,92561.94
2018-02-16T05:29:52.662Z,92562.61
2018-02-16T05:30:41.732Z,92565.34
2018-02-16T05:31:30.789Z,92565.03
2018-02-16T05:32:19.851Z,92567.11
2018-02-16T05:33:10.170Z,92569.54
2018-02-16T05:33:59.269Z,92563.00
2018-02-16T05:34:48.321Z,92567.11
2018-02-16T05:35:37.458Z,92570.59
2018-02-16T05:36:26.529Z,92564.45
2018-02-16T05:37:15.589Z,92571.30
2018-02-16T05:38:04.645Z,92569.93
2018-02-16T05:38:53.765Z,92575.72
2018-02-16T05:39:42.864Z,92569.93
2018-02-16T05:40:31.991Z,92571.69
2018-02-16T05:41:21.127Z,92573.41
2018-02-16T05:42:10.198Z,92572.78
2018-02-16T05:42:59.776Z,92573.84
2018-02-16T05:43:48.924Z,92582.80
2018-02-16T05:46:02.120Z,92579.48
2018-02-16T05:46:51.624Z,92580.53
2018-02-16T05:47:40.683Z,92583.70
2018-02-16T05:48:29.754Z,92579.63
2018-02-16T05:49:18.825Z,92578.93
2018-02-16T05:50:07.906Z,92575.13
2018-02-16T05:50:56.989Z,92583.39
2018-02-16T05:51:46.049Z,92584.09
2018-02-16T05:52:35.410Z,92581.67
2018-02-16T05:53:24.492Z,92585.08
2018-02-16T05:54:13.568Z,92588.17
2018-02-16T05:55:02.653Z,92585.08
2018-02-16T05:55:51.720Z,92583.39
2018-02-16T05:56:40.847Z,92579.64
2018-02-16T05:57:29.921Z,92577.25
2018-02-16T05:58:18.996Z,92578.63
2018-02-16T05:59:08.085Z,92574.91
2018-02-16T05:59:57.174Z,92580.39
2018-02-16T06:00:46.228Z,92576.63
2018-02-16T06:01:35.299Z,92576.31
2018-02-16T06:02:24.456Z,92578.39
2018-02-16T06:03:13.528Z,92579.09
2018-02-16T06:04:02.585Z,92584.61
2018-02-16T06:04:51.650Z,92580.50
2018-02-16T06:05:40.715Z,92577.77
2018-02-16T06:06:29.782Z,92580.47
2018-02-16T06:07:18.870Z,92579.06
2018-02-16T06:08:08.380Z,92577.64
2018-02-16T06:08:57.618Z,92576.55
2018-02-16T06:09:46.819Z,92582.69
2018-02-16T06:10:38.561Z,92574.73
2018-02-16T06:11:28.584Z,92579.79
2018-02-16T06:12:17.674Z,92580.41
2018-02-16T06:13:06.747Z,92579.98
2018-02-16T06:13:55.789Z,92588.48
2018-02-16T06:14:44.850Z,92587.73
2018-02-16T06:15:33.961Z,92586.68
2018-02-16T06:16:23.019Z,92586.33
2018-02-16T06:17:12.114Z,92591.14
2018-02-16T06:18:01.179Z,92594.27
2018-02-16T06:18:50.277Z,92590.48
2018-02-16T06:19:39.342Z,92593.26
2018-02-16T06:20:28.393Z,92590.52
2018-02-16T06:21:17.516Z,92593.30
2018-02-16T06:22:06.698Z,92588.88
2018-02-16T06:22:55.774Z,92592.36
2018-02-16T06:23:44.874Z,92580.41
2018-02-16T06:24:33.949Z,92588.99
2018-02-16T06:25:23.014Z,92587.70
2018-02-16T06:26:12.203Z,92580.84
2018-02-16T06:27:01.265Z,92583.63
2018-02-16T06:27:50.387Z,92583.66
2018-02-16T06:28:39.465Z,92583.66
2018-02-16T06:29:28.539Z,92586.09
2018-02-16T06:30:17.625Z,92587.50
2018-02-16T06:31:06.711Z,92583.41
2018-02-16T06:31:55.824Z,92584.81
2018-02-16T06:32:44.895Z,92588.61
2018-02-16T06:33:33.957Z,92587.28
2018-02-16T06:34:23.020Z,92586.30
2018-02-16T06:35:12.089Z,92584.92
2018-02-16T06:36:01.165Z,92583.95
2018-02-16T06:36:50.226Z,92584.02
2018-02-16T06:37:39.755Z,92584.02
2018-02-16T06:38:28.889Z,92587.14
2018-02-16T06:39:18.016Z,92583.73
2018-02-16T06:40:07.078Z,92590.63
2018-02-16T06:40:56.164Z,92585.85
2018-02-16T06:41:45.237Z,92585.58
2018-02-16T06:42:34.320Z,92588.36
2018-02-16T06:43:23.386Z,92587.38
2018-02-16T06:44:12.512Z,92588.08
2018-02-16T06:45:01.633Z,92582.95
2018-02-16T06:45:50.696Z,92579.89
2018-02-16T06:46:39.757Z,92586.08
2018-02-16T06:47:28.906Z,92580.98
2018-02-16T06:48:17.976Z,92585.10
2018-02-16T06:49:07.039Z,92586.20
2018-02-16T06:49:56.105Z,92587.61
2018-02-16T06:50:45.232Z,92580.40
2018-02-16T06:51:34.359Z,92583.17
2018-02-16T06:52:23.437Z,92584.59
2018-02-16T06:53:12.500Z,92583.88
2018-02-16T06:54:01.552Z,92585.64
2018-02-16T06:54:50.618Z,92588.42
2018-02-16T06:55:40.209Z,92589.44
2018-02-16T06:56:29.268Z,92590.53
2018-02-16T06:57:18.340Z,92587.48
2018-02-16T06:58:07.400Z,92591.98
2018-02-16T06:58:56.470Z,92591.00
2018-02-16T06:59:45.839Z,92587.55
2018-02-16T07:00:35.083Z,92591.36
2018-02-16T07:01:24.155Z,92587.91
2018-02-16T07:02:13.262Z,92583.13
2018-02-16T07:03:02.325Z,92592.06
2018-02-16T07:03:51.440Z,92590.02
2018-02-16T07:04:40.503Z,92591.78
2018-02-16T07:05:29.716Z,92587.00
2018-02-16T07:06:18.799Z,92592.17
2018-02-16T07:07:07.873Z,92592.87
2018-02-16T07:07:56.956Z,92586.06
2018-02-16T07:08:46.029Z,92590.20
2018-02-16T07:09:35.090Z,92593.69
2018-02-16T07:10:24.416Z,92599.17
2018-02-16T07:11:14.065Z,92588.59
2018-02-16T07:12:03.136Z,92590.70
2018-02-16T07:12:52.198Z,92589.73
2018-02-16T07:13:41.327Z,92587.73
2018-02-16T07:14:30.381Z,92587.77
2018-02-16T07:15:19.440Z,92588.82
2018-02-16T07:16:08.549Z,92584.04
2018-02-16T07:16:57.620Z,92585.06
2018-02-16T07:17:46.689Z,92590.63
2018-02-16T07:18:35.787Z,92593.36
2018-02-16T07:19:24.861Z,92593.40
2018-02-16T07:20:13.934Z,92593.40
2018-02-16T07:21:03.029Z,92587.25
2018-02-16T07:21:52.411Z,92593.79
2018-02-16T07:22:41.475Z,92586.58
2018-02-16T07:23:30.563Z,92594.45
2018-02-16T07:24:19.618Z,92594.49
2018-02-16T07:25:08.687Z,92586.27
2018-02-16T07:25:57.766Z,92594.17
2018-02-16T07:26:46.850Z,92593.16
2018-02-16T07:27:36.237Z,92596.92
2018-02-16T07:28:25.357Z,92599.70
2018-02-16T07:29:14.422Z,92591.16
2018-02-16T07:30:03.553Z,92603.50
2018-02-16T07:30:52.642Z,92596.68
2018-02-16T07:31:41.706Z,92593.58
2018-02-16T07:32:30.784Z,92594.99
2018-02-16T07:33:19.867Z,92595.34
2018-02-16T07:34:08.940Z,92595.42
2018-02-16T07:34:57.993Z,92591.66
2018-02-16T07:35:47.114Z,92599.57
2018-02-16T07:36:36.193Z,92599.61
2018-02-16T07:37:25.259Z,92600.00
2018-02-16T07:38:14.350Z,92601.09
2018-02-16T07:39:03.475Z,92601.45
2018-02-16T07:39:52.577Z,92604.86
2018-02-16T07:40:41.640Z,92603.91
2018-02-16T07:41:30.939Z,92595.05
2018-02-16T07:42:20.004Z,92595.41
2018-02-16T07:43:09.137Z,92594.39
2018-02-16T07:43:58.210Z,92600.61
2018-02-16T07:44:47.293Z,92599.98
2018-02-16T07:45:36.372Z,92597.20
2018-02-16T07:46:25.432Z,92601.04
2018-02-16T07:47:14.570Z,92605.19
2018-02-16T07:48:03.886Z,92602.13
2018-02-16T07:48:52.952Z,92601.50
2018-02-16T07:49:42.052Z,92596.72
2018-02-16T07:50:31.107Z,92600.52
2018-02-16T07:51:20.889Z,92596.44
2018-02-16T07:52:10.012Z,92596.12
2018-02-16T07:52:59.112Z,92599.95
2018-02-16T07:53:48.201Z,92601.02
2018-02-16T07:54:37.302Z,92599.01
2018-02-16T07:55:26.372Z,92601.44
2018-02-16T07:56:15.664Z,92600.06
2018-02-16T07:57:04.818Z,92601.86
2018-02-16T07:57:53.925Z,92601.22
2018-02-16T07:58:43.123Z,92604.31
2018-02-16T07:59:32.235Z,92602.63
2018-02-16T08:00:21.309Z,92598.86
2018-02-16T08:01:10.419Z,92593.06
2018-02-16T08:01:59.528Z,92601.68
2018-02-16T08:02:48.594Z,92604.81
2018-02-16T08:03:37.672Z,92595.59
2018-02-16T08:04:26.777Z,92598.34
2018-02-16T08:05:15.826Z,92593.55
2018-02-16T08:06:04.892Z,92595.31
2018-02-16T08:06:53.956Z,92595.38
2018-02-16T08:07:43.022Z,92595.38
2018-02-16T08:08:32.084Z,92597.81
2018-02-16T08:09:21.144Z,92595.06
2018-02-16T08:10:10.252Z,92597.81
2018-02-16T08:11:00.228Z,92594.36
2018-02-16T08:11:50.142Z,92600.55
2018-02-16T08:12:39.218Z,92596.12
2018-02-16T08:13:28.294Z,92592.36
2018-02-16T08:14:17.442Z,92597.18
2018-02-16T08:15:06.517Z,92595.14
2018-02-16T08:15:56.000Z,92597.88
2018-02-16T08:16:45.084Z,92593.06
2018-02-16T08:17:34.145Z,92597.92
2018-02-16T08:18:23.207Z,92597.95
2018-02-16T08:19:12.281Z,92597.64
2018-02-16T08:20:01.353Z,92596.94
2018-02-16T08:20:50.631Z,92599.71
2018-02-16T08:21:39.740Z,92597.98
2018-02-16T08:22:28.805Z,92601.44
2018-02-16T08:23:17.870Z,92600.09
2018-02-16T08:24:06.939Z,92599.78
2018-02-16T08:24:56.006Z,92601.50
2018-02-16T08:25:45.078Z,92601.22
2018-02-16T08:26:34.146Z,92600.56
2018-02-16T08:27:23.325Z,92599.89
2018-02-16T08:28:12.397Z,92600.59
2018-02-16T08:29:01.456Z,92600.28
2018-02-16T08:29:50.519Z,92602.03
2018-02-16T08:30:39.590Z,92598.66
2018-02-16T08:31:28.663Z,92598.69
2018-02-16T08:32:17.734Z,92598.34
2018-02-16T08:33:07.173Z,92602.14
2018-02-16T08:33:56.318Z,92594.22
2018-02-16T08:34:45.395Z,92603.83
2018-02-16T08:35:34.465Z,92598.34
2018-02-16T08:36:23.541Z,92592.18
2018-02-16T08:37:13.665Z,92596.30
2018-02-16T08:38:02.734Z,92594.95
2018-02-16T08:38:51.794Z,92598.05
2018-02-16T08:39:40.852Z,92595.00
2018-02-16T08:40:29.927Z,92595.70
2018-02-16T08:41:19.008Z,92596.79
2018-02-16T08:42:08.073Z,92596.16
2018-02-16T08:42:57.194Z,92594.44
2018-02-16T08:43:46.270Z,92595.17
2018-02-16T08:44:35.379Z,92593.09
2018-02-16T08:45:24.450Z,92596.86
2018-02-16T08:46:13.542Z,92591.05
2018-02-16T08:47:02.610Z,92587.61
2018-02-16T08:47:51.680Z,92592.81
2018-02-16T08:48:42.096Z,92593.20
2018-02-16T08:49:31.151Z,92591.55
2018-02-16T08:50:20.233Z,92595.00
2018-02-16T08:51:09.520Z,92596.02
2018-02-16T08:51:58.592Z,92594.61
2018-02-16T08:52:47.726Z,92591.55
2018-02-16T08:53:36.806Z,92588.48
2018-02-16T08:54:25.867Z,92589.86
2018-02-16T08:55:15.070Z,92588.87
2018-02-16T08:56:04.138Z,92586.83
2018-02-16T08:56:53.227Z,92590.27
2018-02-16T08:57:42.342Z,92587.53
2018-02-16T08:58:31.461Z,92583.77
2018-02-16T08:59:20.529Z,92582.03
2018-02-16T09:00:09.601Z,92587.53
2018-02-16T09:00:58.657Z,92584.08
2018-02-16T09:01:48.257Z,92591.65
2018-02-16T09:02:37.317Z,92587.21
2018-02-16T09:03:26.385Z,92587.56
2018-02-16T09:04:15.453Z,92590.31
2018-02-16T09:05:04.689Z,92588.27
2018-02-16T09:05:53.754Z,92587.59
2018-02-16T09:06:42.819Z,92585.87
2018-02-16T09:07:32.643Z,92591.05
2018-02-16T09:08:21.704Z,92591.40
2018-02-16T09:09:10.821Z,92592.45
2018-02-16T09:09:59.889Z,92589.04
2018-02-16T09:10:48.967Z,92591.50
2018-02-16T09:11:38.203Z,92589.42
2018-02-16T09:12:27.301Z,92589.49
2018-02-16T09:13:16.358Z,92589.49
2018-02-16T09:14:05.480Z,92585.76
2018-02-16T09:14:54.556Z,92592.66
2018-02-16T09:15:43.629Z,92590.27
2018-02-16T09:16:32.718Z,92588.22
2018-02-16T09:17:21.777Z,92587.20
2018-02-16T09:18:10.830Z,92587.58
2018-02-16T09:19:01.095Z,92591.39
2018-02-16T09:19:50.158Z,92587.97
2018-02-16T09:20:39.252Z,92593.81
2018-02-16T09:21:28.339Z,92585.89
2018-02-16T09:22:17.642Z,92589.69
2018-02-16T09:23:06.790Z,92587.65
2018-02-16T09:23:55.874Z,92592.47
2018-02-16T09:24:45.161Z,92586.28
2018-02-16T09:25:34.266Z,92585.25
2018-02-16T09:26:23.344Z,92585.61
2018-02-16T09:27:12.405Z,92588.42
2018-02-16T09:28:01.482Z,92590.88
2018-02-16T09:28:50.572Z,92582.29
2018-02-16T09:29:39.674Z,92583.31
2018-02-16T09:30:28.738Z,92580.22
2018-02-16T09:31:17.806Z,92586.09
2018-02-16T09:32:06.889Z,92584.40
2018-02-16T09:32:55.933Z,92586.55
2018-02-16T09:33:45.001Z,92585.91
2018-02-16T09:34:34.116Z,92587.98
2018-02-16T09:35:23.536Z,92582.88
2018-02-16T09:36:14.809Z,92585.30
2018-02-16T09:37:05.168Z,92584.73
2018-02-16T09:37:54.419Z,92584.73
2018-02-16T09:38:43.485Z,92586.49